createdAt,value
2023-01-21T00:02:08.229Z,92.39
2023-01-21T00:04:38.224Z,92.49
2023-01-21T00:07:07.703Z,92.34
2023-01-21T00:09:38.775Z,92.44
2023-01-21T00:12:07.008Z,92.35
2023-01-21T00:14:35.141Z,92.12
2023-01-21T00:17:03.605Z,92.17
2023-01-21T00:19:32.237Z,91.98
2023-01-21T00:22:00.406Z,91.84
2023-01-21T00:24:28.661Z,91.77
2023-01-21T00:26:59.677Z,91.81
2023-01-21T00:29:31.067Z,91.71
2023-01-21T00:32:00.085Z,91.89
2023-01-21T00:34:28.417Z,92.15
2023-01-21T00:36:56.711Z,92.38
2023-01-21T00:39:31.267Z,92.49
2023-01-21T00:42:05.092Z,92.56
2023-01-21T00:44:33.482Z,92.57
2023-01-21T00:47:04.094Z,92.66
2023-01-21T00:49:32.985Z,92.46
2023-01-21T00:52:01.435Z,92.48
2023-01-21T00:54:32.254Z,92.56
2023-01-21T00:57:00.476Z,92.43
2023-01-21T00:59:30.086Z,91.87
2023-01-21T01:01:58.644Z,91.98
2023-01-21T01:04:27.084Z,91.86
2023-01-21T01:06:55.269Z,91.54
2023-01-21T01:09:29.058Z,91.23
2023-01-21T01:11:59.686Z,91.24
2023-01-21T01:14:28.133Z,91.03
2023-01-21T01:16:56.284Z,91.24
2023-01-21T01:19:25.158Z,91.31
2023-01-21T01:21:53.425Z,91.34
2023-01-21T01:24:21.675Z,91.26
2023-01-21T01:26:49.840Z,91.34
2023-01-21T01:29:18.687Z,91.33
2023-01-21T01:31:46.954Z,91.20
2023-01-21T01:34:20.242Z,91.34
2023-01-21T01:36:49.176Z,91.47
2023-01-21T01:39:17.589Z,91.34
2023-01-21T01:41:46.133Z,91.41
2023-01-21T01:44:51.887Z,91.46
2023-01-21T01:47:31.341Z,91.46
2023-01-21T01:50:01.565Z,91.34
2023-01-21T01:52:33.507Z,91.30
2023-01-21T01:55:04.322Z,91.14
2023-01-21T01:57:39.829Z,91.32
2023-01-21T02:00:11.455Z,91.21
2023-01-21T02:02:42.161Z,91.44
2023-01-21T02:05:11.393Z,91.55
2023-01-21T02:07:42.850Z,91.66
2023-01-21T02:10:14.458Z,91.44
2023-01-21T02:12:44.401Z,91.76
2023-01-21T02:15:17.720Z,91.73
2023-01-21T02:18:24.081Z,91.41
2023-01-21T02:21:11.155Z,91.99
2023-01-21T02:24:10.194Z,92.06
2023-01-21T02:26:41.234Z,92.44
2023-01-21T02:29:09.547Z,92.33
2023-01-21T02:31:47.040Z,92.55
2023-01-21T02:34:50.783Z,92.70
2023-01-21T02:38:12.598Z,92.31
2023-01-21T02:41:14.417Z,92.48
2023-01-21T02:44:04.593Z,92.11
2023-01-21T02:47:18.684Z,92.08
2023-01-21T02:49:53.395Z,92.75
2023-01-21T02:52:25.107Z,92.68
2023-01-21T02:54:59.428Z,93.31
2023-01-21T02:58:05.313Z,93.33
2023-01-21T03:00:54.807Z,92.93
2023-01-21T03:03:47.921Z,93.30
2023-01-21T03:06:32.367Z,93.53
2023-01-21T03:09:22.760Z,93.74
2023-01-21T03:12:00.254Z,93.78
2023-01-21T03:15:09.379Z,94.44
2023-01-21T03:17:48.311Z,94.55
2023-01-21T03:20:25.476Z,94.17
2023-01-21T03:23:00.368Z,94.08
2023-01-21T03:25:31.996Z,94.42
2023-01-21T03:28:03.810Z,94.36
2023-01-21T03:30:34.836Z,94.76
2023-01-21T03:33:04.623Z,95.21
2023-01-21T03:35:37.717Z,95.32
2023-01-21T03:38:08.791Z,95.25
2023-01-21T03:40:44.912Z,94.65
2023-01-21T03:43:13.322Z,94.61
2023-01-21T03:45:52.908Z,94.66
2023-01-21T03:48:42.479Z,95.03
2023-01-21T03:51:18.518Z,94.67
2023-01-21T03:53:52.263Z,94.66
2023-01-21T03:56:20.502Z,94.76
2023-01-21T03:58:48.818Z,94.19
2023-01-21T04:01:17.144Z,94.28
2023-01-21T04:03:45.549Z,94.52
2023-01-21T04:06:16.241Z,94.52
2023-01-21T04:08:47.832Z,95.19
2023-01-21T04:11:16.577Z,94.20
2023-01-21T04:13:44.948Z,95.05
2023-01-21T04:16:16.636Z,95.08
2023-01-21T04:18:45.027Z,95.00
2023-01-21T04:21:16.175Z,95.39
2023-01-21T04:23:44.657Z,95.66
2023-01-21T04:26:16.602Z,95.82
2023-01-21T04:28:48.037Z,95.40
2023-01-21T04:31:16.366Z,95.85
2023-01-21T04:33:44.754Z,95.91
2023-01-21T04:36:13.726Z,96.12
2023-01-21T04:38:42.294Z,95.61
2023-01-21T04:41:10.467Z,95.43
2023-01-21T04:43:38.746Z,95.52
2023-01-21T04:46:06.967Z,95.41
2023-01-21T04:48:35.429Z,95.02
2023-01-21T04:51:04.132Z,95.01
2023-01-21T04:53:32.590Z,95.10
2023-01-21T04:56:01.129Z,95.10
2023-01-21T04:58:29.499Z,94.66
2023-01-21T05:00:57.781Z,95.08
2023-01-21T05:03:29.030Z,95.40
2023-01-21T05:05:57.276Z,95.07
2023-01-21T05:08:25.482Z,94.69
2023-01-21T05:10:53.627Z,94.97
2023-01-21T05:13:21.906Z,94.68
2023-01-21T05:15:50.148Z,95.18
2023-01-21T05:18:18.571Z,94.31
2023-01-21T05:20:46.633Z,95.43
2023-01-21T05:23:18.143Z,95.13
2023-01-21T05:25:49.287Z,95.29
2023-01-21T05:28:17.652Z,95.72
2023-01-21T05:30:45.949Z,95.78
2023-01-21T05:33:14.225Z,96.00
2023-01-21T05:35:42.376Z,95.41
2023-01-21T05:38:13.220Z,95.08
2023-01-21T05:40:41.472Z,94.37
2023-01-21T05:43:09.703Z,94.78
2023-01-21T05:45:37.886Z,95.58
2023-01-21T05:48:06.417Z,95.62
2023-01-21T05:50:34.746Z,95.81
2023-01-21T05:53:03.154Z,94.24
2023-01-21T05:55:31.153Z,94.45
2023-01-21T05:57:59.254Z,94.76
2023-01-21T06:00:27.298Z,95.38
2023-01-21T06:02:55.701Z,94.73
2023-01-21T06:05:24.057Z,95.54
2023-01-21T06:07:52.365Z,95.20
2023-01-21T06:10:20.660Z,95.24
2023-01-21T06:12:52.167Z,95.46
2023-01-21T06:15:20.648Z,95.53
2023-01-21T06:17:48.811Z,95.30
2023-01-21T06:20:17.422Z,95.55
2023-01-21T06:22:45.727Z,95.46
2023-01-21T06:25:13.956Z,95.91
2023-01-21T06:27:42.227Z,96.31
2023-01-21T06:30:11.462Z,96.53
2023-01-21T06:32:39.835Z,96.50
2023-01-21T06:35:08.633Z,96.53
2023-01-21T06:37:36.784Z,96.44
2023-01-21T06:40:08.870Z,96.10
2023-01-21T06:42:40.301Z,96.16
2023-01-21T06:45:11.365Z,95.82
2023-01-21T06:47:46.589Z,95.44
2023-01-21T06:50:17.256Z,95.81
2023-01-21T06:52:50.010Z,95.67
2023-01-21T06:55:18.398Z,95.86
2023-01-21T06:57:46.505Z,95.64
2023-01-21T07:00:20.451Z,95.42
2023-01-21T07:02:58.490Z,95.21
2023-01-21T07:05:29.720Z,95.65
2023-01-21T07:07:58.393Z,95.59
2023-01-21T07:10:26.927Z,95.46
2023-01-21T07:12:55.220Z,95.45
2023-01-21T07:15:23.276Z,95.94
2023-01-21T07:17:54.062Z,96.13
2023-01-21T07:20:22.832Z,96.21
2023-01-21T07:22:53.665Z,95.99
2023-01-21T07:25:22.064Z,95.88
2023-01-21T07:27:50.401Z,96.06
2023-01-21T07:30:20.326Z,95.51
2023-01-21T07:32:49.191Z,95.80
2023-01-21T07:35:17.685Z,95.54
2023-01-21T07:37:45.995Z,95.50
2023-01-21T07:40:16.658Z,95.52
2023-01-21T07:42:50.582Z,95.64
2023-01-21T07:45:20.436Z,95.62
2023-01-21T07:47:49.228Z,95.56
2023-01-21T07:50:17.792Z,95.96
2023-01-21T07:52:46.177Z,95.52
2023-01-21T07:55:14.766Z,95.25
2023-01-21T07:57:43.471Z,94.98
2023-01-21T08:00:12.638Z,94.85
2023-01-21T08:02:41.106Z,94.16
2023-01-21T08:05:10.318Z,93.78
2023-01-21T08:07:38.673Z,93.00
2023-01-21T08:10:09.880Z,92.60
2023-01-21T08:12:38.319Z,92.60
2023-01-21T08:15:10.648Z,91.87
2023-01-21T08:17:48.904Z,92.03
2023-01-21T08:20:17.200Z,91.43
2023-01-21T08:22:45.455Z,91.61
2023-01-21T08:25:13.838Z,90.74
2023-01-21T08:27:42.173Z,90.98
2023-01-21T08:30:10.950Z,89.07
2023-01-21T08:32:39.694Z,88.30
2023-01-21T08:35:08.553Z,88.31
2023-01-21T08:37:36.869Z,88.27
2023-01-21T08:40:06.408Z,89.23
2023-01-21T08:42:35.042Z,87.68
2023-01-21T08:45:03.831Z,88.21
2023-01-21T08:47:37.892Z,88.94
2023-01-21T08:50:07.997Z,88.60
2023-01-21T08:52:36.492Z,88.71
2023-01-21T08:55:08.060Z,88.58
2023-01-21T08:57:36.640Z,88.13
2023-01-21T09:00:05.762Z,87.87
2023-01-21T09:02:36.407Z,87.96
2023-01-21T09:05:05.368Z,87.54
2023-01-21T09:07:33.778Z,87.57
2023-01-21T09:10:03.975Z,86.96
2023-01-21T09:12:32.367Z,86.62
2023-01-21T09:15:00.533Z,87.50
2023-01-21T09:17:28.909Z,86.73
2023-01-21T09:19:57.043Z,86.70
2023-01-21T09:22:25.363Z,86.64
2023-01-21T09:24:53.985Z,86.62
2023-01-21T09:27:27.299Z,87.02
2023-01-21T09:29:58.742Z,86.95
2023-01-21T09:32:26.885Z,86.42
2023-01-21T09:34:55.337Z,86.86
2023-01-21T09:37:23.747Z,86.02
2023-01-21T09:39:51.988Z,86.49
2023-01-21T09:42:25.564Z,86.55
2023-01-21T09:44:56.815Z,86.79
2023-01-21T09:47:33.727Z,86.58
2023-01-21T09:50:14.889Z,87.17
2023-01-21T09:52:49.642Z,87.09
2023-01-21T09:55:34.046Z,86.49
2023-01-21T09:58:11.909Z,85.50
2023-01-21T10:00:52.933Z,85.08
2023-01-21T10:03:55.572Z,84.91
2023-01-21T10:06:48.549Z,84.42
2023-01-21T10:10:18.219Z,84.49
2023-01-21T10:13:34.181Z,83.79
2023-01-21T10:16:21.341Z,83.52
2023-01-21T10:18:55.989Z,84.48
2023-01-21T10:21:35.968Z,83.24
2023-01-21T10:24:16.156Z,83.62
2023-01-21T10:26:48.402Z,84.76
2023-01-21T10:29:19.702Z,84.65
2023-01-21T10:32:07.307Z,83.35
2023-01-21T10:34:52.499Z,83.02
2023-01-21T10:37:48.555Z,82.83
2023-01-21T10:40:45.688Z,82.93
2023-01-21T10:43:26.028Z,82.94
2023-01-21T10:46:44.861Z,82.44
2023-01-21T10:49:51.518Z,82.56
2023-01-21T10:52:34.587Z,80.93
2023-01-21T10:55:43.893Z,81.12
2023-01-21T10:58:39.025Z,81.05
2023-01-21T11:01:16.594Z,79.38
2023-01-21T11:03:51.126Z,80.02
2023-01-21T11:06:24.490Z,79.00
2023-01-21T11:08:58.716Z,79.51
2023-01-21T11:11:35.434Z,78.22
2023-01-21T11:14:03.897Z,79.97
2023-01-21T11:16:40.817Z,78.27
2023-01-21T11:19:16.362Z,77.98
2023-01-21T11:22:09.017Z,78.94
2023-01-21T11:24:46.323Z,78.80
2023-01-21T11:27:41.892Z,79.16
2023-01-21T11:30:50.715Z,79.44
2023-01-21T11:33:29.792Z,78.16
2023-01-21T11:36:13.120Z,77.05
2023-01-21T11:38:45.600Z,78.11
2023-01-21T11:41:13.860Z,77.46
2023-01-21T11:43:48.016Z,76.15
2023-01-21T11:46:38.827Z,76.68
2023-01-21T11:49:06.954Z,76.24
2023-01-21T11:51:36.986Z,75.79
2023-01-21T11:54:11.005Z,76.46
2023-01-21T11:56:43.358Z,76.14
2023-01-21T11:59:35.904Z,77.47
2023-01-21T12:02:26.347Z,78.60
2023-01-21T12:05:09.166Z,77.47
2023-01-21T12:07:42.557Z,77.11
2023-01-21T12:10:16.759Z,76.52
2023-01-21T12:13:32.163Z,76.35
2023-01-21T12:16:13.251Z,76.00
2023-01-21T12:19:22.110Z,75.58
2023-01-21T12:22:13.781Z,75.62
2023-01-21T12:25:06.482Z,76.76
2023-01-21T12:27:47.634Z,75.50
2023-01-21T12:30:38.115Z,75.88
2023-01-21T12:33:36.539Z,75.60
2023-01-21T12:36:11.166Z,75.71
2023-01-21T12:38:42.673Z,75.01
2023-01-21T12:41:19.028Z,75.14
2023-01-21T12:43:54.885Z,75.27
2023-01-21T12:46:46.562Z,75.51
2023-01-21T12:49:25.065Z,75.41
2023-01-21T12:52:00.071Z,74.78
2023-01-21T12:54:39.169Z,73.62
2023-01-21T12:57:20.665Z,73.50
2023-01-21T12:59:57.144Z,73.42
2023-01-21T13:02:49.487Z,73.48
2023-01-21T13:05:34.507Z,73.28
2023-01-21T13:08:46.022Z,73.85
2023-01-21T13:11:23.520Z,73.96
2023-01-21T13:14:15.618Z,74.92
2023-01-21T13:16:49.842Z,73.49
2023-01-21T13:19:18.000Z,74.27
2023-01-21T13:22:26.596Z,73.88
2023-01-21T13:25:13.239Z,73.57
2023-01-21T13:28:07.011Z,73.13
2023-01-21T13:31:02.123Z,73.10
2023-01-21T13:34:18.061Z,73.59
2023-01-21T13:37:11.759Z,73.90
2023-01-21T13:39:49.707Z,73.61
2023-01-21T13:42:30.307Z,73.93
2023-01-21T13:45:30.549Z,73.88
2023-01-21T13:48:49.982Z,74.40
2023-01-21T13:51:36.938Z,73.78
2023-01-21T13:54:42.378Z,74.09
2023-01-21T13:57:48.428Z,74.08
2023-01-21T14:00:24.569Z,74.38
2023-01-21T14:03:14.329Z,74.37
2023-01-21T14:05:51.560Z,74.39
2023-01-21T14:08:33.844Z,74.60
2023-01-21T14:11:23.964Z,74.66
2023-01-21T14:14:08.308Z,75.00
2023-01-21T14:16:45.908Z,74.97
2023-01-21T14:19:20.474Z,75.30
2023-01-21T14:21:48.468Z,75.68
2023-01-21T14:24:51.948Z,75.58
2023-01-21T14:27:40.512Z,75.66
2023-01-21T14:30:37.453Z,75.63
2023-01-21T14:33:46.257Z,75.57
2023-01-21T14:36:29.699Z,75.96
2023-01-21T14:39:19.492Z,75.65
2023-01-21T14:42:11.828Z,75.83
2023-01-21T14:45:04.971Z,76.04
2023-01-21T14:47:38.646Z,76.19
2023-01-21T14:50:10.442Z,76.27
2023-01-21T14:52:46.699Z,76.24
2023-01-21T14:55:36.696Z,76.47
2023-01-21T14:58:23.089Z,76.68
2023-01-21T15:00:52.005Z,76.79
2023-01-21T15:03:30.488Z,77.07
2023-01-21T15:06:10.875Z,77.29
2023-01-21T15:08:46.251Z,77.66
2023-01-21T15:11:21.084Z,78.24
2023-01-21T15:14:11.235Z,78.24
2023-01-21T15:16:41.381Z,78.26
2023-01-21T15:19:14.658Z,78.43
2023-01-21T15:21:45.636Z,78.39
2023-01-21T15:24:41.793Z,78.89
2023-01-21T15:27:28.215Z,78.27
2023-01-21T15:29:56.965Z,77.99
2023-01-21T15:32:39.287Z,78.25
2023-01-21T15:35:29.701Z,78.39
2023-01-21T15:38:17.568Z,78.22
2023-01-21T15:40:53.715Z,78.35
2023-01-21T15:43:49.615Z,78.29
2023-01-21T15:46:42.428Z,78.43
2023-01-21T15:49:16.442Z,78.36
2023-01-21T15:52:12.475Z,78.40
2023-01-21T15:54:54.474Z,78.51
2023-01-21T15:58:07.215Z,78.45
2023-01-21T16:01:06.111Z,78.61
2023-01-21T16:03:44.593Z,78.82
2023-01-21T16:06:31.349Z,79.16
2023-01-21T16:09:12.252Z,79.44
2023-01-21T16:12:16.468Z,79.79
2023-01-21T16:15:03.392Z,79.84
2023-01-21T16:18:12.224Z,79.91
2023-01-21T16:20:50.234Z,80.18
2023-01-21T16:23:22.625Z,80.31
2023-01-21T16:25:53.358Z,80.22
2023-01-21T16:28:21.824Z,80.19
2023-01-21T16:31:01.227Z,79.95
2023-01-21T16:33:33.264Z,80.00
2023-01-21T16:36:07.425Z,79.87
2023-01-21T16:38:37.884Z,80.09
2023-01-21T16:41:15.463Z,80.54
2023-01-21T16:43:52.819Z,80.30
2023-01-21T16:46:39.060Z,79.94
2023-01-21T16:49:15.793Z,80.21
2023-01-21T16:52:00.157Z,80.15
2023-01-21T16:54:46.841Z,80.57
2023-01-21T16:57:19.488Z,80.57
2023-01-21T16:59:52.345Z,81.21
2023-01-21T17:02:25.802Z,80.92
2023-01-21T17:04:57.765Z,81.29
2023-01-21T17:07:32.899Z,81.84
2023-01-21T17:10:17.764Z,82.15
2023-01-21T17:12:59.618Z,82.46
2023-01-21T17:15:41.556Z,81.93
2023-01-21T17:18:26.898Z,82.44
2023-01-21T17:21:03.869Z,82.73
2023-01-21T17:23:58.597Z,83.15
2023-01-21T17:26:41.879Z,82.58
2023-01-21T17:29:31.589Z,83.02
2023-01-21T17:32:02.586Z,82.58
2023-01-21T17:34:36.615Z,82.77
2023-01-21T17:37:24.802Z,83.45
2023-01-21T17:39:53.296Z,83.92
2023-01-21T17:42:24.266Z,84.13
2023-01-21T17:44:55.759Z,84.46
2023-01-21T17:47:27.998Z,84.68
2023-01-21T17:50:20.567Z,84.91
2023-01-21T17:53:09.514Z,84.88
2023-01-21T17:55:40.888Z,84.64
2023-01-21T17:58:52.827Z,84.76
2023-01-21T18:01:27.161Z,84.75
2023-01-21T18:03:58.661Z,84.94
2023-01-21T18:06:38.715Z,84.76
2023-01-21T18:09:13.502Z,84.72
2023-01-21T18:11:43.328Z,84.87
2023-01-21T18:14:18.949Z,84.53
2023-01-21T18:16:50.702Z,84.75
2023-01-21T18:19:33.249Z,84.94
2023-01-21T18:22:04.728Z,84.15
2023-01-21T18:24:34.839Z,84.46
2023-01-21T18:27:03.407Z,84.63
2023-01-21T18:29:32.190Z,84.71
2023-01-21T18:32:00.451Z,85.16
2023-01-21T18:34:35.100Z,85.38
2023-01-21T18:37:13.547Z,85.16
2023-01-21T18:39:42.074Z,85.34
2023-01-21T18:42:27.601Z,84.77
2023-01-21T18:44:58.285Z,85.15
2023-01-21T18:47:32.816Z,85.71
2023-01-21T18:50:03.407Z,85.94
2023-01-21T18:52:31.891Z,85.72
2023-01-21T18:55:00.596Z,85.85
2023-01-21T18:57:28.763Z,85.97
2023-01-21T19:00:04.238Z,86.08
2023-01-21T19:02:36.371Z,86.29
2023-01-21T19:05:07.192Z,86.12
2023-01-21T19:07:35.550Z,86.27
2023-01-21T19:10:04.118Z,86.41
2023-01-21T19:12:32.592Z,86.39
2023-01-21T19:15:04.914Z,86.60
2023-01-21T19:17:33.651Z,86.19
2023-01-21T19:20:02.180Z,86.01
2023-01-21T19:22:30.598Z,85.91
2023-01-21T19:24:58.899Z,85.80
2023-01-21T19:27:32.571Z,85.55
2023-01-21T19:30:01.279Z,85.48
2023-01-21T19:32:29.388Z,85.76
2023-01-21T19:34:57.894Z,85.53
2023-01-21T19:37:26.250Z,86.00
2023-01-21T19:39:54.404Z,86.02
2023-01-21T19:42:22.937Z,86.38
2023-01-21T19:44:51.535Z,85.92
2023-01-21T19:47:26.595Z,86.08
2023-01-21T19:49:55.193Z,86.23
2023-01-21T19:52:23.624Z,86.43
2023-01-21T19:54:54.765Z,86.61
2023-01-21T19:57:23.982Z,86.65
2023-01-21T19:59:53.564Z,87.13
2023-01-21T20:02:21.948Z,86.23
2023-01-21T20:04:50.432Z,87.16
2023-01-21T20:07:18.741Z,87.16
2023-01-21T20:09:47.137Z,87.28
2023-01-21T20:12:15.481Z,87.50
2023-01-21T20:14:43.757Z,87.45
2023-01-21T20:17:14.098Z,87.60
2023-01-21T20:19:42.354Z,87.69
2023-01-21T20:22:12.646Z,87.75
2023-01-21T20:24:43.616Z,87.89
2023-01-21T20:27:14.371Z,87.93
2023-01-21T20:29:55.575Z,87.91
2023-01-21T20:32:30.637Z,88.00
2023-01-21T20:34:59.086Z,87.88
2023-01-21T20:37:27.315Z,87.84
2023-01-21T20:39:55.555Z,87.74
2023-01-21T20:42:24.077Z,87.65
2023-01-21T20:44:54.907Z,87.57
2023-01-21T20:47:37.877Z,87.60
2023-01-21T20:50:20.440Z,87.69
2023-01-21T20:52:49.686Z,87.71
2023-01-21T20:55:20.961Z,87.78
2023-01-21T20:57:49.960Z,87.79
2023-01-21T21:00:22.948Z,87.70
2023-01-21T21:02:51.484Z,87.76
2023-01-21T21:05:20.391Z,87.84
2023-01-21T21:07:51.994Z,87.81
2023-01-21T21:10:36.230Z,87.72
2023-01-21T21:13:04.813Z,87.32
2023-01-21T21:15:36.475Z,87.11
2023-01-21T21:18:05.685Z,87.65
2023-01-21T21:20:37.056Z,88.05
2023-01-21T21:23:07.481Z,87.99
2023-01-21T21:25:40.501Z,87.74
2023-01-21T21:28:11.146Z,87.51
2023-01-21T21:30:39.524Z,87.52
2023-01-21T21:33:12.337Z,87.52
2023-01-21T21:35:41.190Z,87.41
2023-01-21T21:38:17.123Z,87.69
2023-01-21T21:40:47.395Z,88.01
2023-01-21T21:43:33.022Z,88.05
2023-01-21T21:46:25.110Z,88.19
2023-01-21T21:48:53.934Z,88.24
2023-01-21T21:51:22.665Z,88.30
2023-01-21T21:53:52.061Z,88.11
2023-01-21T21:56:23.006Z,88.24
2023-01-21T21:58:54.539Z,88.20
2023-01-21T22:01:30.402Z,88.28
2023-01-21T22:04:04.893Z,88.33
2023-01-21T22:06:36.320Z,88.39
2023-01-21T22:09:07.189Z,88.37
2023-01-21T22:11:35.444Z,88.38
2023-01-21T22:14:04.477Z,88.35
2023-01-21T22:16:36.452Z,87.88
2023-01-21T22:19:05.213Z,87.73
2023-01-21T22:21:36.350Z,87.72
2023-01-21T22:24:08.299Z,87.86
2023-01-21T22:26:40.217Z,88.29
2023-01-21T22:29:08.593Z,88.66
2023-01-21T22:31:46.766Z,88.53
2023-01-21T22:34:15.569Z,88.55
2023-01-21T22:36:47.159Z,88.27
2023-01-21T22:39:23.773Z,88.37
2023-01-21T22:42:00.338Z,89.10
2023-01-21T22:44:31.687Z,89.18
2023-01-21T22:46:59.998Z,89.14
2023-01-21T22:49:30.678Z,89.16
2023-01-21T22:52:02.134Z,88.01
2023-01-21T22:54:30.440Z,88.71
2023-01-21T22:57:01.385Z,88.43
2023-01-21T22:59:31.891Z,88.86
2023-01-21T23:02:02.471Z,88.95
2023-01-21T23:04:33.255Z,88.72
2023-01-21T23:07:03.948Z,88.77
2023-01-21T23:09:32.935Z,89.09
2023-01-21T23:12:01.477Z,89.34
2023-01-21T23:14:32.858Z,89.38
2023-01-21T23:17:01.340Z,89.59
2023-01-21T23:19:29.640Z,89.63
2023-01-21T23:22:00.845Z,89.76
2023-01-21T23:24:32.025Z,89.62
2023-01-21T23:27:00.575Z,89.62
2023-01-21T23:29:32.017Z,89.66
2023-01-21T23:32:00.787Z,89.57
2023-01-21T23:34:29.330Z,89.20
2023-01-21T23:36:57.652Z,89.48
2023-01-21T23:39:25.700Z,89.10
2023-01-21T23:41:55.058Z,89.09
2023-01-21T23:44:25.541Z,89.28
2023-01-21T23:46:54.144Z,89.21
2023-01-21T23:49:25.301Z,89.56
2023-01-21T23:51:53.303Z,89.32
